Shenandoah Heights, Pennsylvania
Current Conditions -  °F | °C
As of 3:35 AM on Sunday 23 Nov 2014 (Local Time) from KHZL Reporting Station
Overcast Overcast  
Wind Chill: 41°   Ceiling: 6000
Heat Index: 41°   Visibility: 10mi
Dew Point: 19°   Wind: 0mph
Humidity: 42%   Direction: NA
Pressure: 30.14"   Gusts: NA
Location:  40.8208°N, 76.1672°W
Report Text: KHZL 230835Z AUTO 00000KT 10SM BKN060 OVC090 05/M07 A3014 RMK AO2
Loading
Personal Weather Stations






























Interactive Weather Map New forecast layout! Learn more

10-Day Weather Forecast

Advertisements
Track Severe Weather on mobile